Latest Coastal Weather Observations for Gabo Island

IDT60701

Issued at 12:12 pm EST Monday 29 May 2017 (issued every 10 minutes, with the page automatically refreshed every 10 minutes)

About coastal observations | Map of coastal stations | Coastal observations for TAS | Marine services | Other Formats
Station Details ID: 084016 Name: GABO ISLAND LIGHTHOUSE Lat: -37.57 Lon: 149.92 Height: 15.2 m
Data from the previous 72 hours. | See also: Recent months at Gabo Island
Date/Time
EST
Temp
°C
Wind Pressure Rain since
9am
mm
Weather Cloud Vis
km
Sea
Height
m
Swell
Dir  Spd
kts
Gust
kts
hPa Trend Height
m
Period
s
Dir
29/12:00pm 14.2 WSW 20 29 1015.8 - 0.0 - - - - - - -
29/11:30am 13.8 WSW 25 31 1015.7 - 0.0 - - - - - - -
29/11:00am 13.4 WSW 26 31 1015.8 - 0.0 - - - - - - -
29/10:30am 13.2 WSW 27 32 1015.7 - 0.0 - - - - - - -
29/10:00am 12.9 W 26 35 1015.3 - 0.0 - - - - - - -
29/09:30am 12.3 W 27 34 1015.1 - 0.0 - - - - - - -
29/09:00am 11.9 W 26 33 1014.6 - 0.0 Distant precip. Partly cloudy 25 2 1.0 - -
29/08:30am 11.6 W 27 32 1014.5 - 0.0 - - - - - - -
29/08:00am 10.9 W 26 34 1013.7 - 0.0 - - - - - - -
29/07:30am 10.8 W 24 31 1013.5 - 0.0 - - - - - - -
29/07:00am 10.6 W 25 32 1013.1 - 0.0 - - - - - - -
29/06:30am 10.6 W 23 29 1012.7 - 0.0 - - - - - - -
29/06:22am 10.4 W 21 31 1012.7 - 0.0 - - - - - - -
29/06:00am 10.4 W 21 29 1012.4 - 0.0 - - - - - - -
29/05:30am 9.9 W 18 24 1012.2 - 0.0 - - - - - - -
29/05:00am 9.9 W 20 25 1011.4 - 0.0 - - - - - - -
29/04:30am 9.7 W 15 19 1011.4 - 0.0 - - - - - - -
29/04:00am 9.9 W 20 26 1011.2 - 0.0 - - - - - - -
29/03:30am 10.1 W 20 25 1011.0 - 0.0 - - - - - - -
29/03:00am 10.3 W 20 26 1010.8 - 0.0 Fine Mostly clear 40 1 1.0 - -
29/02:30am 10.2 W 14 18 1011.0 - 0.0 - - - - - - -
29/02:00am 9.5 W 9 13 1011.0 - 0.0 - - - - - - -
29/01:30am 10.1 W 12 15 1010.7 - 0.0 - - - - - - -
29/01:00am 10.2 W 12 15 1010.4 - 0.0 - - - - - - -
29/12:30am 10.4 W 14 18 1010.4 - 0.0 - - - - - - -
29/12:00am 10.4 W 13 19 1010.5 - 0.0 - - - - - - -
 
Date/Time
EST
Temp
°C
Wind Pressure Rain since
9am
mm
Weather Cloud Vis
km
Sea
Height
m
Swell
Dir  Spd
kts
Gust
kts
hPa Trend Height
m
Period
s
Dir
28/11:30pm 10.6 W 14 19 1010.3 - 0.0 - - - - - - -
28/11:00pm 11.1 W 16 21 1010.1 - 0.0 - - - - - - -
28/10:30pm 11.4 W 12 17 1010.0 - 0.0 - - - - - - -
28/10:00pm 10.9 WNW 9 13 1009.8 - 0.0 - - - - - - -
28/09:30pm 10.5 NW 6 8 1009.7 - 0.0 - - - - - - -
28/09:00pm 10.5 NW 7 10 1009.8 - 0.0 Lightning Mostly clear 40 1 1.0 - -
28/08:30pm 10.0 N 6 9 1009.5 - 0.0 - - - - - - -
28/08:00pm 11.5 WNW 7 11 1009.2 - 0.0 - - - - - - -
28/07:30pm 12.2 W 11 15 1008.9 - 0.0 - - - - - - -
28/07:00pm 11.6 NW 6 8 1008.4 - 0.0 - - - - - - -
28/06:30pm 12.4 WNW 8 12 1008.0 - 0.0 - - - - - - -
28/06:00pm 12.4 W 9 12 1007.3 - 0.0 - - - - - - -
28/05:30pm 12.8 WNW 9 13 1007.0 - 0.0 - - - - - - -
28/05:00pm 13.6 W 14 16 1006.5 - 0.0 - - - - - - -
28/04:30pm 14.4 SW 19 23 1006.0 - 0.0 - - - - - - -
28/04:00pm 14.2 WSW 19 25 1006.0 - 0.0 - - - - - - -
28/03:30pm 13.9 WSW 12 20 1005.4 - 0.0 - - - - - - -
28/03:00pm 15.0 SW 27 31 1005.6 - 0.0 Distant precip. Mostly cloudy 40 2 1.0 - -
28/02:30pm 15.1 SSW 25 29 1004.7 - 0.0 - - - - - - -
28/02:12pm 16.4 SSW 23 31 1004.6 - 0.0 - - - - - - -
28/02:00pm 19.0 W 9 14 1004.5 - 0.0 - - - - - - -
28/01:35pm 17.8 WSW 15 29 1004.4 - 0.0 - - - - - - -
28/01:30pm 18.5 WSW 14 18 1004.4 - 0.0 - - - - - - -
28/01:00pm 18.9 W 6 11 1004.4 - 0.0 - - - - - - -
28/12:30pm 20.3 WNW 8 12 1004.6 - 0.0 - - - - - - -
28/12:00pm 19.7 NNW 8 12 1005.2 - 0.0 - - - - - - -
28/11:30am 18.0 NW 10 15 1005.5 - 0.0 - - - - - - -
28/11:00am 18.1 NNW 11 17 1005.9 - 0.0 - - - - - - -
28/10:30am 19.0 NNW 13 18 1006.2 - 0.0 - - - - - - -
28/10:00am 17.5 NW 11 18 1006.4 - 0.0 - - - - - - -
28/09:30am 17.4 N 6 8 1006.0 - 0.0 - - - - - - -
28/09:00am 14.9 NNE 5 6 1006.6 - 0.0 Fine Mostly cloudy 50 1 1.0 - -
28/08:30am 14.7 N 8 11 1006.7 - 0.0 - - - - - - -
28/08:00am 14.5 N 8 10 1006.8 - 0.0 - - - - - - -
28/07:30am 14.3 N 9 10 1007.2 - 0.0 - - - - - - -
28/07:00am 13.1 N 9 11 1007.3 - 0.0 - - - - - - -
28/06:30am 12.8 N 9 11 1007.3 - 0.0 - - - - - - -
28/06:00am 13.7 N 10 12 1007.6 - 0.0 - - - - - - -
28/05:30am 13.7 N 9 12 1007.7 - 0.0 - - - - - - -
28/05:00am 14.4 NNE 10 13 1007.8 - 0.0 - - - - - - -
28/04:30am 13.5 NNE 6 7 1008.5 - 0.0 - - - - - - -
28/04:00am 13.6 NNE 9 11 1008.5 - 0.0 - - - - - - -
28/03:30am 13.9 N 11 13 1008.7 - 0.0 - - - - - - -
28/03:00am 13.1 N 9 11 1009.4 - 0.0 Fine Partly cloudy 40 1 1.0 - -
28/02:30am 13.6 N 9 11 1010.0 - 0.0 - - - - - - -
28/02:00am 12.9 N 9 10 1010.5 - 0.0 - - - - - - -
28/01:30am 12.7 NNW 8 9 1010.7 - 0.0 - - - - - - -
28/01:00am 13.0 W 8 9 1011.1 - 0.0 - - - - - - -
28/12:30am 13.5 N 7 9 1011.6 - 0.0 - - - - - - -
28/12:00am 14.4 N 7 11 1011.7 - 0.0 - - - - - - -
 
Date/Time
EST
Temp
°C
Wind Pressure Rain since
9am
mm
Weather Cloud Vis
km
Sea
Height
m
Swell
Dir  Spd
kts
Gust
kts
hPa Trend Height
m
Period
s
Dir
27/11:30pm 15.1 NNE 11 14 1011.8 - 0.0 - - - - - - -
27/11:00pm 15.1 NNE 14 18 1012.1 - 0.0 - - - - - - -
27/10:30pm 16.0 N 16 20 1012.4 - 0.0 - - - - - - -
27/10:00pm 15.4 N 15 18 1012.7 - 0.0 - - - - - - -
27/09:30pm 15.8 NNE 14 17 1013.2 - 0.0 - - - - - - -
27/09:00pm 15.9 NNE 17 21 1013.2 - 0.0 Fine Mostly clear 40 1 1.0 - -
27/08:30pm 15.6 NNE 13 17 1013.6 - 0.0 - - - - - - -
27/08:00pm 15.0 NNE 14 17 1013.8 - 0.0 - - - - - - -
27/07:30pm 14.8 NNE 12 15 1014.3 - 0.0 - - - - - - -
27/07:00pm 15.0 NNE 13 15 1014.3 - 0.0 - - - - - - -
27/06:30pm 15.1 N 13 15 1014.7 - 0.0 - - - - - - -
27/06:00pm 15.1 NNE 11 14 1014.8 - 0.0 - - - - - - -
27/05:30pm 15.0 N 10 13 1015.0 - 0.0 - - - - - - -
27/05:00pm 16.0 NNE 10 13 1015.2 - 0.0 - - - - - - -
27/04:30pm 16.4 NNE 11 13 1015.4 - 0.0 - - - - - - -
27/04:00pm 16.8 NNE 10 13 1015.6 - 0.0 - - - - - - -
27/03:30pm 17.4 NNE 11 14 1015.8 - 0.0 - - - - - - -
27/03:00pm 17.9 NNE 11 13 1016.0 - 0.0 Fine Mostly cloudy 40 1 1.0 - -
27/02:30pm 17.9 NNE 13 15 1016.0 - 0.0 - - - - - - -
27/02:00pm 18.7 NNE 12 14 1016.3 - 0.0 - - - - - - -
27/01:30pm 18.4 NE 13 16 1016.6 - 0.0 - - - - - - -
27/01:00pm 18.5 NNE 9 13 1017.1 - 0.0 - - - - - - -
27/12:30pm 18.9 NNE 8 11 1017.6 - 0.0 - - - - - - -
27/12:00pm 19.4 N 6 9 1018.2 - 0.0 - - - - - - -
27/11:30am 18.7 N 6 8 1018.9 - 0.0 - - - - - - -
27/11:00am 18.6 N 5 7 1019.6 - 0.0 - - - - - - -
27/10:30am 17.9 N 9 12 1019.8 - 0.0 - - - - - - -
27/10:00am 17.4 N 11 13 1020.0 - 0.0 - - - - - - -
27/09:30am 16.7 N 7 9 1020.2 - 0.0 - - - - - - -
27/09:00am 15.9 N 6 9 1020.4 - 0.6 Fine Mostly clear 50 1 1.0 - -
27/08:30am 14.1 NW 5 6 1020.5 - 0.6 - - - - - - -
27/08:00am 12.8 WNW 5 8 1020.6 - 0.6 - - - - - - -
27/07:30am 12.5 NNW 5 7 1020.4 - 0.6 - - - - - - -
27/07:00am 12.2 N 6 10 1020.3 - 0.6 - - - - - - -
27/06:30am 11.2 N 5 8 1020.1 - 0.6 - - - - - - -
27/06:00am 11.0 NW 5 7 1020.2 - 0.6 - - - - - - -
27/05:30am 11.5 WNW 6 7 1020.3 - 0.6 - - - - - - -
27/05:00am 11.5 N 5 6 1020.3 - 0.6 - - - - - - -
27/04:30am 11.5 N 7 7 1020.3 - 0.6 - - - - - - -
27/04:00am 11.7 N 6 6 1020.3 - 0.6 - - - - - - -
27/03:30am 12.0 N 6 7 1020.6 - 0.6 - - - - - - -
27/03:00am 11.2 NNW 6 7 1020.8 - 0.6 Fine Clear 40 1 1.0 - -
27/02:30am 11.6 N 6 7 1020.9 - 0.6 - - - - - - -
27/02:00am 11.7 N 6 7 1021.1 - 0.6 - - - - - - -
27/01:30am 12.0 NW 5 6 1021.1 - 0.6 - - - - - - -
27/01:00am 13.1 WNW 5 6 1021.2 - 0.6 - - - - - - -
27/12:30am 12.9 NW 6 7 1021.4 - 0.6 - - - - - - -
27/12:00am 12.5 W 5 8 1021.6 - 0.6 - - - - - - -
 
Date/Time
EST
Temp
°C
Wind Pressure Rain since
9am
mm
Weather Cloud Vis
km
Sea
Height
m
Swell
Dir  Spd
kts
Gust
kts
hPa Trend Height
m
Period
s
Dir
26/11:30pm 13.1 NW 6 7 1021.7 - 0.6 - - - - - - -
26/11:00pm 13.5 W 5 7 1021.8 - 0.6 - - - - - - -
26/10:30pm 13.6 WNW 6 7 1021.8 - 0.6 - - - - - - -
26/10:00pm 13.6 WNW 7 9 1022.0 - 0.6 - - - - - - -
26/09:30pm 14.0 W 10 11 1022.0 - 0.6 - - - - - - -
26/09:00pm 13.6 NW 7 9 1022.1 - 0.6 Fine Mostly cloudy 30 1 1.0 - -
26/08:30pm 13.4 NW 7 9 1022.1 - 0.6 - - - - - - -
26/08:00pm 12.9 WNW 7 8 1022.0 - 0.6 - - - - - - -
26/07:30pm 13.2 WNW 7 10 1021.7 - 0.6 - - - - - - -
26/07:00pm 13.8 W 10 12 1021.4 - 0.6 - - - - - - -
26/06:30pm 15.0 WSW 11 16 1021.3 - 0.6 - - - - - - -
26/06:00pm 14.9 SW 10 14 1021.2 - 0.6 - - - - - - -
26/05:30pm 15.1 SW 14 17 1020.8 - 0.6 - - - - - - -
26/05:00pm 15.2 SW 15 18 1020.8 - 0.6 - - - - - - -
26/04:30pm 15.3 SW 15 19 1020.6 - 0.6 - - - - - - -
26/04:00pm 15.6 SW 17 20 1020.6 - 0.6 - - - - - - -
26/03:30pm 15.8 SW 18 22 1020.6 - 0.6 - - - - - - -
26/03:00pm 15.9 SW 19 25 1020.2 - 0.6 Distant precip. Partly cloudy 20 1 1.0 - -
26/02:30pm 16.0 SW 19 23 1020.2 - 0.6 - - - - - - -
26/02:00pm 15.9 SW 18 22 1020.3 - 0.6 - - - - - - -
26/01:30pm 16.0 WSW 19 24 1020.4 - 0.6 - - - - - - -
26/01:00pm 15.6 WSW 16 19 1020.6 - 0.6 - - - - - - -
26/12:30pm 14.7 SW 19 22 1020.8 - 0.6 - - - - - - -

Other Formats:

Comma delimited format used in spreadsheet applications
http://www.bom.gov.au/fwo/IDT60701/IDT60701.94933.axf

JavaScript Object Notation format (JSON) in row-major order
http://www.bom.gov.au/fwo/IDT60701/IDT60701.94933.json